Time;durP1;ratioP1;P1;durP2;ratioP2;P2;SDS_P1;SDS_P2;PMS_P1;PMS_P2;Temp;Humidity;BMP_temperature;BMP_pressure;BME280_temperature;BME280_humidity;BME280_pressure;Samples;Min_cycle;Max_cycle;Signal;HPM_P1;HPM_P2
2022/03/14 00:00:12;;;;;;;94.70;46.85;;;3.40;55.00;;;;;;4994426;28;20057;-60
2022/03/14 00:02:39;;;;;;;173.18;81.28;;;3.50;54.60;;;;;;4994420;28;20530;-60
2022/03/14 00:05:05;;;;;;;157.98;76.00;;;3.50;54.10;;;;;;4994401;28;20389;-60
2022/03/14 00:07:35;;;;;;;129.82;62.30;;;3.20;54.10;;;;;;4994370;28;20029;-60
2022/03/14 00:10:05;;;;;;;119.88;56.35;;;3.10;54.60;;;;;;4994299;28;20473;-60
2022/03/14 00:12:31;;;;;;;123.38;62.03;;;3.10;55.00;;;;;;4994324;28;20066;-62
2022/03/14 00:15:03;;;;;;;123.32;58.10;;;3.20;55.10;;;;;;4994554;28;20068;-61
2022/03/14 00:17:29;;;;;;;97.50;50.33;;;3.20;54.70;;;;;;4994516;28;20481;-61
2022/03/14 00:19:57;;;;;;;104.10;48.75;;;3.20;54.80;;;;;;4994509;28;20026;-61
2022/03/14 00:22:24;;;;;;;117.00;58.83;;;3.30;55.00;;;;;;4994154;28;20026;-61
2022/03/14 00:24:49;;;;;;;107.22;51.65;;;3.30;55.10;;;;;;4994072;28;20161;-61
2022/03/14 00:27:15;;;;;;;101.35;49.78;;;3.10;55.40;;;;;;4994159;28;20054;-61
2022/03/14 00:29:41;;;;;;;95.07;46.60;;;3.10;55.20;;;;;;4993237;28;20034;-61
2022/03/14 00:32:07;;;;;;;93.15;46.55;;;3.10;55.60;;;;;;4994063;28;20032;-61
2022/03/14 00:34:33;;;;;;;98.82;45.83;;;3.10;55.60;;;;;;4994082;28;20028;-61
2022/03/14 00:36:59;;;;;;;116.45;56.13;;;3.10;54.40;;;;;;4994027;28;20492;-61
2022/03/14 00:39:25;;;;;;;89.80;44.55;;;3.10;54.60;;;;;;4993928;28;20037;-61
2022/03/14 00:41:51;;;;;;;91.90;44.83;;;3.00;54.70;;;;;;4993953;28;20022;-61
2022/03/14 00:44:17;;;;;;;97.05;47.17;;;3.00;54.60;;;;;;4993877;28;20022;-61
2022/03/14 00:46:43;;;;;;;89.30;42.95;;;3.00;54.80;;;;;;4993825;28;20077;-61
2022/03/14 00:49:09;;;;;;;92.88;44.95;;;3.00;54.50;;;;;;4993863;28;20025;-61
2022/03/14 00:51:35;;;;;;;100.80;48.17;;;3.10;54.00;;;;;;4994130;28;20027;-61
2022/03/14 00:54:02;;;;;;;100.18;47.80;;;3.10;54.10;;;;;;4993603;28;20449;-61
2022/03/14 00:56:28;;;;;;;95.28;45.63;;;3.10;54.00;;;;;;4993667;28;20030;-61
2022/03/14 00:58:55;;;;;;;109.78;50.58;;;3.10;54.10;;;;;;4993803;28;20124;-61
2022/03/14 01:01:21;;;;;;;102.07;47.78;;;3.10;54.00;;;;;;4993644;28;20029;-61
2022/03/14 01:03:47;;;;;;;134.13;62.20;;;3.00;53.60;;;;;;4993803;28;20026;-61
2022/03/14 01:06:13;;;;;;;145.52;68.10;;;3.00;54.10;;;;;;4993895;28;20085;-61
2022/03/14 01:08:38;;;;;;;125.47;59.38;;;2.80;54.50;;;;;;4993661;28;20030;-61
2022/03/14 01:11:04;;;;;;;120.15;56.10;;;2.60;55.10;;;;;;4993435;28;20049;-61
2022/03/14 01:13:30;;;;;;;134.90;62.30;;;2.60;55.40;;;;;;4993525;28;20081;-61
2022/03/14 01:15:56;;;;;;;156.07;77.25;;;2.60;55.30;;;;;;4993767;28;20026;-61
2022/03/14 01:18:22;;;;;;;125.13;57.63;;;2.40;56.00;;;;;;4993805;28;20106;-61
2022/03/14 01:20:47;;;;;;;111.85;55.05;;;2.30;57.00;;;;;;4993580;28;20543;-61
2022/03/14 01:23:14;;;;;;;121.82;58.75;;;2.40;56.00;;;;;;4993563;28;20054;-61
2022/03/14 01:25:40;;;;;;;119.78;55.08;;;2.50;55.80;;;;;;4993205;28;20033;-61
2022/03/14 01:28:06;;;;;;;104.53;49.72;;;2.40;55.70;;;;;;4993502;28;20462;-61
2022/03/14 01:30:32;;;;;;;94.32;47.40;;;2.50;55.70;;;;;;4993529;28;20023;-61
2022/03/14 01:33:00;;;;;;;96.90;48.03;;;2.50;55.40;;;;;;4992197;28;20450;-61
2022/03/14 01:35:26;;;;;;;92.38;44.92;;;2.50;55.30;;;;;;4993533;28;20473;-61
2022/03/14 01:37:52;;;;;;;93.60;46.30;;;2.50;55.10;;;;;;4993490;28;20475;-61
2022/03/14 01:40:19;;;;;;;102.78;48.60;;;2.50;55.20;;;;;;4994366;28;20019;-61
2022/03/14 01:42:45;;;;;;;120.88;56.38;;;2.50;55.10;;;;;;4997253;28;20033;-61
2022/03/14 01:45:13;;;;;;;123.80;58.72;;;2.40;55.20;;;;;;4997285;28;20037;-61
2022/03/14 01:47:41;;;;;;;94.47;47.15;;;2.20;56.20;;;;;;4997191;28;20030;-61
2022/03/14 01:50:08;;;;;;;93.07;47.40;;;2.10;57.10;;;;;;4997145;28;20035;-61
2022/03/14 01:52:34;;;;;;;94.60;45.72;;;2.20;56.60;;;;;;4996953;28;20018;-61
2022/03/14 01:55:01;;;;;;;82.03;40.28;;;2.20;56.50;;;;;;4996547;28;20030;-61
2022/03/14 01:57:27;;;;;;;73.63;39.15;;;2.20;56.10;;;;;;4996940;28;20033;-61
2022/03/14 01:59:54;;;;;;;83.60;40.13;;;2.30;56.10;;;;;;4996966;28;20105;-61
2022/03/14 02:02:20;;;;;;;81.00;39.13;;;2.30;56.30;;;;;;4996717;28;20022;-61
2022/03/14 02:04:47;;;;;;;77.97;39.30;;;2.40;55.60;;;;;;4996894;28;20031;-61
2022/03/14 02:07:13;;;;;;;64.63;33.67;;;2.30;55.90;;;;;;4996970;28;20114;-61
2022/03/14 02:09:38;;;;;;;71.43;34.67;;;2.30;55.90;;;;;;4996476;28;20077;-61
2022/03/14 02:12:07;;;;;;;90.00;43.83;;;2.30;56.10;;;;;;4996334;28;20054;-61
2022/03/14 02:14:39;;;;;;;78.55;36.83;;;2.30;57.30;;;;;;4996552;28;20392;-61
2022/03/14 02:17:09;;;;;;;67.68;33.50;;;2.20;57.80;;;;;;4996422;28;20027;-61
2022/03/14 02:19:35;;;;;;;61.88;30.63;;;2.20;57.70;;;;;;4996729;28;20101;-61
2022/03/14 02:22:05;;;;;;;61.63;30.15;;;2.20;58.10;;;;;;4996471;28;20503;-61
2022/03/14 02:24:31;;;;;;;73.90;34.88;;;2.20;57.50;;;;;;4996306;28;20026;-61
2022/03/14 02:26:57;;;;;;;62.92;32.10;;;2.20;57.10;;;;;;4996321;28;20590;-61
2022/03/14 02:29:24;;;;;;;63.25;30.52;;;2.20;57.60;;;;;;4996248;28;20106;-61
2022/03/14 02:31:51;;;;;;;58.78;30.75;;;2.10;57.70;;;;;;4996179;28;20026;-61
2022/03/14 02:34:17;;;;;;;65.38;32.08;;;2.10;57.90;;;;;;4996237;28;20022;-61
2022/03/14 02:36:43;;;;;;;70.93;34.95;;;2.10;57.50;;;;;;4996282;28;20029;-61
2022/03/14 02:39:09;;;;;;;59.33;29.73;;;2.10;57.40;;;;;;4995997;28;20100;-61
2022/03/14 02:41:35;;;;;;;68.70;34.55;;;2.10;58.40;;;;;;4996264;28;20015;-61
2022/03/14 02:44:02;;;;;;;61.08;31.98;;;2.00;57.10;;;;;;4996003;28;20061;-61
2022/03/14 02:46:29;;;;;;;75.03;38.47;;;2.00;57.30;;;;;;4995980;28;20038;-61
2022/03/14 02:48:54;;;;;;;66.20;32.15;;;2.00;56.60;;;;;;4995896;28;20022;-61
2022/03/14 02:51:20;;;;;;;66.88;33.28;;;1.90;56.70;;;;;;4995209;28;20491;-61
2022/03/14 02:53:46;;;;;;;69.82;34.60;;;1.80;56.90;;;;;;4995397;28;20066;-61
2022/03/14 02:56:12;;;;;;;69.28;36.15;;;1.80;56.70;;;;;;4995681;28;20069;-61
2022/03/14 02:58:39;;;;;;;63.22;32.65;;;1.80;56.50;;;;;;4995888;28;20053;-61
2022/03/14 03:01:04;;;;;;;71.25;36.92;;;1.80;56.60;;;;;;4995698;28;20029;-61
2022/03/14 03:03:31;;;;;;;94.72;46.40;;;1.90;56.80;;;;;;4995539;28;20023;-61
2022/03/14 03:05:58;;;;;;;68.38;35.75;;;1.70;57.00;;;;;;4995552;28;20045;-61
2022/03/14 03:08:24;;;;;;;62.95;32.80;;;1.60;57.30;;;;;;4995334;28;20029;-60
2022/03/14 03:10:50;;;;;;;63.53;33.80;;;1.60;57.70;;;;;;4995394;28;20022;-61
2022/03/14 03:13:16;;;;;;;71.32;35.03;;;1.60;57.60;;;;;;4995301;28;20054;-61
2022/03/14 03:15:42;;;;;;;63.67;33.25;;;1.60;57.10;;;;;;4995460;28;20026;-61
2022/03/14 03:18:12;;;;;;;60.90;31.65;;;1.70;57.30;;;;;;4995291;28;20026;-61
2022/03/14 03:20:38;;;;;;;58.70;31.48;;;1.70;57.30;;;;;;4995300;28;20030;-61
2022/03/14 03:23:03;;;;;;;64.72;32.67;;;1.70;57.20;;;;;;4995119;28;20026;-61
2022/03/14 03:25:29;;;;;;;74.65;38.85;;;1.60;57.20;;;;;;4995038;28;20034;-61
2022/03/14 03:27:55;;;;;;;54.80;31.92;;;1.60;57.00;;;;;;4995140;28;20439;-61
2022/03/14 03:30:21;;;;;;;60.25;29.73;;;1.50;57.60;;;;;;4995386;28;20022;-61
2022/03/14 03:32:46;;;;;;;53.90;30.67;;;1.50;57.60;;;;;;4995073;28;20477;-61
2022/03/14 03:35:12;;;;;;;52.17;29.13;;;1.50;57.40;;;;;;4995216;28;20034;-61
2022/03/14 03:37:38;;;;;;;49.78;27.63;;;1.60;57.20;;;;;;4995041;28;20022;-61
2022/03/14 03:40:05;;;;;;;69.82;35.88;;;1.60;57.20;;;;;;4995226;28;20022;-61
2022/03/14 03:42:31;;;;;;;53.65;28.42;;;1.60;57.10;;;;;;4994820;28;20499;-61
2022/03/14 03:44:57;;;;;;;48.72;26.90;;;1.30;58.00;;;;;;4994778;28;20239;-61
2022/03/14 03:47:24;;;;;;;51.25;26.88;;;1.30;58.10;;;;;;4994788;28;20041;-61
2022/03/14 03:49:50;;;;;;;45.90;26.30;;;1.30;58.20;;;;;;4994669;28;20023;-61
2022/03/14 03:52:15;;;;;;;49.08;25.70;;;1.30;57.80;;;;;;4994504;28;20018;-61
2022/03/14 03:54:41;;;;;;;48.10;25.00;;;1.30;58.60;;;;;;4994629;28;20065;-61
2022/03/14 03:57:07;;;;;;;45.10;25.38;;;1.30;58.40;;;;;;4994560;28;20026;-61
2022/03/14 03:59:32;;;;;;;51.60;27.52;;;1.30;58.10;;;;;;4994580;28;20030;-61
2022/03/14 04:02:01;;;;;;;45.78;23.45;;;1.30;58.20;;;;;;4994644;28;20093;-60
2022/03/14 04:04:26;;;;;;;54.10;27.08;;;1.30;58.50;;;;;;4994040;28;20053;-61
2022/03/14 04:06:55;;;;;;;43.05;22.55;;;1.30;58.20;;;;;;4994734;28;20026;-61
2022/03/14 04:09:22;;;;;;;58.60;29.52;;;1.30;58.70;;;;;;4994538;28;20030;-61
2022/03/14 04:11:48;;;;;;;45.28;24.52;;;1.30;58.60;;;;;;4994386;28;20054;-61
2022/03/14 04:14:14;;;;;;;59.83;30.42;;;1.30;58.90;;;;;;4994322;28;20064;-61
2022/03/14 04:16:41;;;;;;;54.17;28.77;;;1.30;59.00;;;;;;4994613;28;20037;-61
2022/03/14 04:19:07;;;;;;;55.35;27.40;;;1.20;58.80;;;;;;4994370;28;20199;-61
2022/03/14 04:21:35;;;;;;;61.35;29.67;;;1.10;58.90;;;;;;4994182;28;20018;-61
2022/03/14 04:24:03;;;;;;;62.00;30.35;;;1.10;58.60;;;;;;4994350;28;20145;-61
2022/03/14 04:26:29;;;;;;;61.95;31.98;;;1.10;58.60;;;;;;4994116;28;20061;-61
2022/03/14 04:28:54;;;;;;;70.78;33.00;;;1.10;58.30;;;;;;4994084;28;20018;-61
2022/03/14 04:31:21;;;;;;;77.10;39.13;;;1.20;57.80;;;;;;4994112;28;20030;-61
2022/03/14 04:33:47;;;;;;;68.18;33.35;;;1.20;57.90;;;;;;4993898;28;20448;-61
2022/03/14 04:36:13;;;;;;;78.88;37.75;;;1.20;57.70;;;;;;4993918;28;20030;-60
2022/03/14 04:38:39;;;;;;;65.70;32.40;;;1.20;57.60;;;;;;4993955;28;20033;-60
2022/03/14 04:41:05;;;;;;;69.60;35.45;;;1.20;58.00;;;;;;4993933;28;20026;-61
2022/03/14 04:43:31;;;;;;;67.82;33.28;;;1.20;57.90;;;;;;4994147;28;20033;-61
2022/03/14 04:45:57;;;;;;;65.07;31.33;;;1.10;58.20;;;;;;4994161;28;20037;-61
2022/03/14 04:48:23;;;;;;;64.40;31.35;;;1.10;58.30;;;;;;4993813;28;20473;-61
2022/03/14 04:50:50;;;;;;;80.68;37.28;;;1.10;57.80;;;;;;4993731;28;20026;-61
2022/03/14 04:53:17;;;;;;;67.65;34.15;;;1.20;57.60;;;;;;4993940;28;20023;-61
2022/03/14 04:55:43;;;;;;;86.22;41.60;;;1.20;57.80;;;;;;4993933;28;20034;-60
2022/03/14 04:58:14;;;;;;;85.25;41.38;;;1.10;58.20;;;;;;4993804;28;20030;-61
2022/03/14 05:00:41;;;;;;;66.63;34.92;;;1.00;58.50;;;;;;4993900;28;20019;-61
2022/03/14 05:03:08;;;;;;;81.90;38.28;;;1.00;58.80;;;;;;4993666;28;20034;-61
2022/03/14 05:05:34;;;;;;;92.55;42.60;;;1.00;58.40;;;;;;4993628;28;20384;-60
2022/03/14 05:08:02;;;;;;;81.40;38.28;;;0.90;58.50;;;;;;4994016;28;20049;-61
2022/03/14 05:10:28;;;;;;;80.90;38.85;;;0.90;59.00;;;;;;4994030;28;20388;-61
2022/03/14 05:12:54;;;;;;;81.50;36.05;;;0.90;58.70;;;;;;4993390;28;20074;-61
2022/03/14 05:15:20;;;;;;;82.03;38.92;;;0.90;58.70;;;;;;4995070;28;20058;-61
2022/03/14 05:17:47;;;;;;;76.78;36.97;;;1.00;58.80;;;;;;4997531;28;20097;-60
2022/03/14 05:20:13;;;;;;;78.13;35.00;;;0.90;59.20;;;;;;4997598;28;20026;-61
2022/03/14 05:22:43;;;;;;;78.15;37.10;;;0.90;59.00;;;;;;4997635;28;20025;-60
2022/03/14 05:25:10;;;;;;;80.20;38.95;;;1.00;59.40;;;;;;4997558;28;20058;-61
2022/03/14 05:27:37;;;;;;;75.30;39.03;;;1.00;58.70;;;;;;4997418;28;20030;-61
2022/03/14 05:30:06;;;;;;;76.18;37.53;;;0.80;59.00;;;;;;4997387;28;20465;-61
2022/03/14 05:32:32;;;;;;;85.22;44.08;;;0.80;59.10;;;;;;4997319;28;20031;-60
2022/03/14 05:34:57;;;;;;;75.72;38.75;;;0.90;59.60;;;;;;4995878;28;20444;-61
2022/03/14 05:37:23;;;;;;;72.30;37.80;;;0.80;59.50;;;;;;4997197;28;20089;-61
2022/03/14 05:39:49;;;;;;;69.53;34.13;;;0.80;59.80;;;;;;4997053;28;20022;-60
2022/03/14 05:42:15;;;;;;;67.65;36.03;;;0.90;59.50;;;;;;4996853;28;20517;-61
2022/03/14 05:44:43;;;;;;;110.65;52.40;;;1.00;59.50;;;;;;4996646;28;20058;-60
2022/03/14 05:47:09;;;;;;;91.17;49.07;;;1.00;60.00;;;;;;4996937;28;20033;-60
2022/03/14 05:49:35;;;;;;;82.70;42.28;;;0.80;60.90;;;;;;4996722;28;20022;-61
2022/03/14 05:52:00;;;;;;;83.45;42.70;;;0.80;62.30;;;;;;4996888;28;20033;-61
2022/03/14 05:54:26;;;;;;;86.28;42.88;;;0.90;61.20;;;;;;4996625;28;20362;-60
2022/03/14 05:56:54;;;;;;;127.03;57.35;;;0.90;60.80;;;;;;4995904;28;20117;-60
2022/03/14 05:59:20;;;;;;;135.85;63.65;;;0.90;63.00;;;;;;4994976;28;20550;-60
2022/03/14 06:01:50;;;;;;;185.52;85.32;;;1.00;62.10;;;;;;4995750;28;20022;-60
2022/03/14 06:04:16;;;;;;;235.82;106.78;;;1.00;62.20;;;;;;4993682;28;20023;-60
2022/03/14 06:06:42;;;;;;;321.58;147.55;;;1.00;63.10;;;;;;5030078;28;20025;-61
2022/03/14 06:09:08;;;;;;;298.23;143.18;;;0.80;65.30;;;;;;5033952;28;20032;-60
2022/03/14 06:11:34;;;;;;;333.05;153.32;;;0.70;66.70;;;;;;5033584;28;20014;-60
2022/03/14 06:14:00;;;;;;;261.58;126.03;;;0.60;67.90;;;;;;5033742;28;20361;-60
2022/03/14 06:16:26;;;;;;;293.02;143.50;;;0.70;68.00;;;;;;5033280;28;20347;-61
2022/03/14 06:18:51;;;;;;;339.83;152.45;;;0.70;67.20;;;;;;5033868;28;20029;-61
2022/03/14 06:21:17;;;;;;;282.48;131.70;;;0.70;66.90;;;;;;5035552;28;20418;-60
2022/03/14 06:23:43;;;;;;;436.75;212.88;;;0.90;66.90;;;;;;5035302;28;20026;-60
2022/03/14 06:26:09;;;;;;;575.67;298.33;;;1.00;66.20;;;;;;5034413;28;20380;-61
2022/03/14 06:28:34;;;;;;;477.13;244.23;;;1.00;68.60;;;;;;5035085;28;20026;-60
2022/03/14 06:31:00;;;;;;;556.78;286.67;;;1.00;68.10;;;;;;5016496;28;20060;-60
2022/03/14 06:33:26;;;;;;;680.92;363.83;;;1.40;68.00;;;;;;5015650;28;20033;-60
2022/03/14 06:35:52;;;;;;;578.92;311.75;;;3.70;62.10;;;;;;5015544;28;20080;-60
2022/03/14 06:38:17;;;;;;;540.95;281.60;;;6.20;54.00;;;;;;5014788;28;20026;-61
2022/03/14 06:40:43;;;;;;;605.72;328.08;;;8.40;48.90;;;;;;5014933;28;20053;-60
2022/03/14 06:43:13;;;;;;;600.20;332.35;;;10.40;44.00;;;;;;5013803;28;20487;-61
2022/03/14 06:45:40;;;;;;;538.90;301.40;;;11.00;41.80;;;;;;5013084;28;20476;-61
2022/03/14 06:48:06;;;;;;;517.30;306.73;;;11.10;41.10;;;;;;5013559;28;20385;-61
2022/03/14 06:50:34;;;;;;;499.40;285.90;;;11.70;39.90;;;;;;5019133;28;20064;-61
2022/03/14 06:53:01;;;;;;;460.85;260.38;;;12.40;39.30;;;;;;5032502;28;20052;-61
2022/03/14 06:55:27;;;;;;;472.40;270.40;;;13.10;38.00;;;;;;5033546;28;20032;-61
2022/03/14 06:57:52;;;;;;;462.70;259.80;;;13.80;36.60;;;;;;5033811;28;20649;-61
2022/03/14 07:00:18;;;;;;;408.52;230.13;;;14.40;36.10;;;;;;5033416;28;20105;-61
2022/03/14 07:02:44;;;;;;;354.88;197.38;;;14.90;35.60;;;;;;5034133;28;20031;-61
2022/03/14 07:05:20;;;;;;;302.40;168.52;;;16.10;33.00;;;;;;5033505;28;20033;-61
2022/03/14 07:07:46;;;;;;;296.17;158.27;;;17.30;32.10;;;;;;5034397;28;20538;-61
2022/03/14 07:10:16;;;;;;;303.08;165.88;;;18.00;31.00;;;;;;5034647;28;20049;-61
2022/03/14 07:12:46;;;;;;;347.00;203.57;;;18.00;30.50;;;;;;5034310;28;20037;-61
2022/03/14 07:15:22;;;;;;;295.50;168.32;;;18.00;31.30;;;;;;5034019;28;20033;-61
2022/03/14 07:17:49;;;;;;;241.57;137.75;;;18.50;30.00;;;;;;5023100;28;20034;-61
2022/03/14 07:20:18;;;;;;;202.10;114.03;;;19.60;29.30;;;;;;5012730;28;20028;-61
2022/03/14 07:22:55;;;;;;;169.35;99.35;;;20.40;28.60;;;;;;5014034;28;20033;-61
2022/03/14 07:25:34;;;;;;;143.90;82.50;;;20.90;27.70;;;;;;5011547;28;20026;-63
2022/03/14 07:28:02;;;;;;;121.45;73.15;;;21.70;27.50;;;;;;5017512;28;20040;-62
2022/03/14 07:30:28;;;;;;;110.40;65.65;;;22.50;26.70;;;;;;5031034;28;20052;-61
2022/03/14 07:32:54;;;;;;;99.35;56.92;;;23.00;26.60;;;;;;5019622;28;20484;-62
2022/03/14 07:35:21;;;;;;;83.70;51.67;;;23.60;26.00;;;;;;5012512;28;20488;-62
2022/03/14 07:37:47;;;;;;;90.47;54.13;;;23.90;24.90;;;;;;5017908;28;20025;-62
2022/03/14 07:40:15;;;;;;;75.13;49.25;;;23.30;25.60;;;;;;5020902;28;20480;-61
2022/03/14 07:42:48;;;;;;;134.50;79.18;;;23.30;25.50;;;;;;5020192;28;20034;-63
2022/03/14 07:45:17;;;;;;;141.93;84.32;;;23.60;25.00;;;;;;5019965;28;20397;-62
2022/03/14 07:47:43;;;;;;;198.60;105.90;;;24.00;25.10;;;;;;5025897;28;20057;-62
2022/03/14 07:50:11;;;;;;;154.63;88.35;;;24.30;25.30;;;;;;5020123;28;20066;-61
2022/03/14 07:52:38;;;;;;;148.35;85.80;;;24.60;24.80;;;;;;5012623;28;20049;-62
2022/03/14 07:55:05;;;;;;;137.80;82.05;;;24.80;25.00;;;;;;5011126;28;20445;-63
2022/03/14 07:57:32;;;;;;;118.03;71.38;;;24.90;24.50;;;;;;5014002;28;20022;-64
2022/03/14 07:59:59;;;;;;;108.18;67.18;;;25.10;24.50;;;;;;5010812;28;20065;-63
2022/03/14 08:02:25;;;;;;;98.15;62.78;;;25.70;24.70;;;;;;5007331;28;20024;-66
2022/03/14 08:04:51;;;;;;;119.75;69.55;;;26.00;24.50;;;;;;5010195;28;20029;-68
2022/03/14 08:07:18;;;;;;;122.47;72.35;;;25.50;24.70;;;;;;5006964;28;20036;-69
2022/03/14 08:09:43;;;;;;;124.22;75.57;;;25.20;24.60;;;;;;5007404;28;20032;-65
2022/03/14 08:12:12;;;;;;;106.45;66.22;;;25.70;24.70;;;;;;5004480;28;20073;-64
2022/03/14 08:14:38;;;;;;;102.40;61.83;;;26.10;24.00;;;;;;5003471;28;20037;-67
2022/03/14 08:17:05;;;;;;;82.05;51.58;;;26.40;24.90;;;;;;5002433;28;20053;-67
2022/03/14 08:19:32;;;;;;;75.47;47.30;;;26.50;24.30;;;;;;5003513;28;20409;-69
2022/03/14 08:21:58;;;;;;;62.85;42.67;;;26.60;23.70;;;;;;5014536;28;20030;-65
2022/03/14 08:24:25;;;;;;;68.05;45.05;;;26.40;23.90;;;;;;5007995;28;20025;-68
2022/03/14 08:26:51;;;;;;;76.47;49.03;;;26.40;23.80;;;;;;5017307;28;20092;-70
2022/03/14 08:29:17;;;;;;;74.78;47.80;;;26.80;24.60;;;;;;5016384;28;20029;-67
2022/03/14 08:31:43;;;;;;;63.08;43.65;;;26.80;23.40;;;;;;5017579;28;20026;-62
2022/03/14 08:34:10;;;;;;;59.90;41.65;;;26.70;23.90;;;;;;5012821;28;20476;-64
2022/03/14 08:36:37;;;;;;;55.28;38.65;;;27.00;23.70;;;;;;5011873;28;20060;-67
2022/03/14 08:39:04;;;;;;;47.55;33.25;;;27.10;23.20;;;;;;5018341;28;20025;-64
2022/03/14 08:41:30;;;;;;;40.65;30.33;;;26.80;22.40;;;;;;5022350;28;20393;-66
2022/03/14 08:43:56;;;;;;;43.22;32.00;;;26.50;23.20;;;;;;4998571;28;20037;-64
2022/03/14 08:46:22;;;;;;;61.53;42.53;;;26.30;23.70;;;;;;5008222;28;20374;-62
2022/03/14 08:48:47;;;;;;;62.70;42.08;;;26.40;23.60;;;;;;5003619;28;20056;-68
2022/03/14 08:51:13;;;;;;;49.55;37.42;;;26.70;23.60;;;;;;5005809;28;20041;-66
2022/03/14 08:53:39;;;;;;;48.38;36.03;;;26.90;23.30;;;;;;5007062;28;20022;-65
2022/03/14 08:56:05;;;;;;;57.28;40.35;;;26.80;22.90;;;;;;5005305;28;20022;-68
2022/03/14 08:58:32;;;;;;;56.22;40.00;;;26.20;23.30;;;;;;5014149;28;20018;-68
2022/03/14 09:00:59;;;;;;;45.38;33.90;;;25.80;23.10;;;;;;5016848;28;20049;-71
2022/03/14 09:03:28;;;;;;;37.28;27.10;;;25.80;23.80;;;;;;5016701;28;20028;-68
2022/03/14 09:05:57;;;;;;;39.80;29.08;;;25.40;23.80;;;;;;5015829;28;20119;-67
2022/03/14 09:08:24;;;;;;;43.05;32.00;;;24.30;22.80;;;;;;5017299;28;20510;-66
2022/03/14 09:10:51;;;;;;;47.45;32.83;;;23.40;24.50;;;;;;5012772;28;20064;-69
2022/03/14 09:13:17;;;;;;;49.67;34.90;;;23.00;24.70;;;;;;5009793;28;20066;-71
2022/03/14 09:15:43;;;;;;;43.70;31.35;;;22.70;25.30;;;;;;5010860;28;20010;-66
2022/03/14 09:18:09;;;;;;;35.67;27.20;;;22.40;24.70;;;;;;5007881;28;20030;-68
2022/03/14 09:20:39;;;;;;;37.10;25.55;;;22.00;24.70;;;;;;5025746;28;20029;-65
2022/03/14 09:23:06;;;;;;;36.67;25.63;;;21.50;25.90;;;;;;5026604;28;20328;-66
2022/03/14 09:25:32;;;;;;;33.90;24.25;;;20.80;25.90;;;;;;5010816;28;20084;-68
2022/03/14 09:27:58;;;;;;;30.30;22.27;;;20.60;25.10;;;;;;5023299;28;20033;-72
2022/03/14 09:30:24;;;;;;;23.05;14.77;;;20.40;27.40;;;;;;5030028;28;20328;-69
2022/03/14 09:32:51;;;;;;;21.63;15.43;;;20.30;27.30;;;;;;5023070;28;20369;-67
2022/03/14 09:35:18;;;;;;;20.85;15.02;;;20.10;25.20;;;;;;5017509;28;20484;-68
2022/03/14 09:37:46;;;;;;;20.83;15.65;;;19.80;26.10;;;;;;5009590;28;20022;-66
2022/03/14 09:40:17;;;;;;;33.15;24.45;;;19.60;26.40;;;;;;5010374;28;20032;-65
2022/03/14 09:42:45;;;;;;;37.85;27.90;;;19.70;26.90;;;;;;5018222;28;20042;-65
2022/03/14 09:45:14;;;;;;;36.25;27.30;;;19.80;26.10;;;;;;5015659;28;20502;-66
2022/03/14 09:47:44;;;;;;;42.80;30.02;;;20.00;26.00;;;;;;5017253;28;20032;-62
2022/03/14 09:50:14;;;;;;;36.65;26.88;;;20.00;26.00;;;;;;5016613;28;20037;-62
2022/03/14 09:52:45;;;;;;;38.72;28.42;;;20.20;25.20;;;;;;5017437;28;20083;-63
2022/03/14 09:55:12;;;;;;;39.20;29.15;;;20.50;25.60;;;;;;5017172;28;20022;-63
2022/03/14 09:57:42;;;;;;;38.90;28.48;;;20.90;27.80;;;;;;5006345;28;20033;-64
2022/03/14 10:00:13;;;;;;;37.03;27.95;;;21.30;27.30;;;;;;5006012;28;20356;-66
2022/03/14 10:02:39;;;;;;;36.95;26.55;;;21.40;26.60;;;;;;5009661;28;20030;-66
2022/03/14 10:05:08;;;;;;;37.33;27.45;;;21.90;26.30;;;;;;5011751;28;20468;-65
2022/03/14 10:07:40;;;;;;;41.40;30.67;;;22.00;25.70;;;;;;5013032;28;20025;-62
2022/03/14 10:10:06;;;;;;;33.67;25.10;;;21.80;25.60;;;;;;5028205;28;20056;-66
2022/03/14 10:12:33;;;;;;;31.13;24.67;;;21.70;26.50;;;;;;5032318;28;20103;-67
2022/03/14 10:15:04;;;;;;;24.85;19.75;;;21.50;26.40;;;;;;5031081;28;20444;-61
2022/03/14 10:17:31;;;;;;;26.42;19.05;;;21.70;26.40;;;;;;5021361;28;20479;-67
2022/03/14 10:19:59;;;;;;;22.05;18.17;;;21.70;26.50;;;;;;5017007;28;20104;-65
2022/03/14 10:22:33;;;;;;;21.55;15.80;;;21.80;26.90;;;;;;5012644;28;20041;-65
2022/03/14 10:25:19;;;;;;;23.33;18.15;;;22.00;25.20;;;;;;5026152;28;20112;-66
2022/03/14 10:27:55;;;;;;;20.77;15.65;;;21.80;25.60;;;;;;5032095;28;20664;-67
2022/03/14 10:30:29;;;;;;;19.92;16.05;;;22.00;24.60;;;;;;5032965;28;20017;-63
2022/03/14 10:33:10;;;;;;;23.75;16.63;;;22.30;25.30;;;;;;5014557;28;20034;-66
2022/03/14 10:35:39;;;;;;;23.67;16.90;;;22.70;25.20;;;;;;5024575;28;20032;-63
2022/03/14 10:38:09;;;;;;;20.58;16.73;;;22.90;26.40;;;;;;5013582;28;20034;-64
2022/03/14 10:40:39;;;;;;;21.98;17.30;;;23.00;25.00;;;;;;5004787;28;20033;-69
2022/03/14 10:43:26;;;;;;;18.80;15.57;;;23.20;24.90;;;;;;5014754;28;20034;-65
2022/03/14 10:45:53;;;;;;;19.15;15.93;;;23.50;23.80;;;;;;5017158;28;20094;-64
2022/03/14 10:48:45;;;;;;;20.60;16.65;;;23.30;24.80;;;;;;5013095;28;20488;-65
2022/03/14 10:51:14;;;;;;;23.15;17.88;;;23.00;23.70;;;;;;5028425;28;20512;-69
2022/03/14 10:53:46;;;;;;;21.55;17.05;;;22.30;24.60;;;;;;5022826;28;20041;-64
2022/03/14 10:56:14;;;;;;;21.13;15.05;;;22.60;24.90;;;;;;5023652;28;20420;-64
2022/03/14 10:58:43;;;;;;;17.73;14.50;;;22.90;25.50;;;;;;5021454;28;20026;-61
2022/03/14 11:01:13;;;;;;;17.00;12.75;;;22.90;25.20;;;;;;5021474;28;20494;-67
2022/03/14 11:03:45;;;;;;;14.13;11.30;;;22.90;25.40;;;;;;5024880;28;20051;-66
2022/03/14 11:06:19;;;;;;;10.95;9.13;;;22.80;24.20;;;;;;5030124;28;20071;-68
2022/03/14 11:08:51;;;;;;;10.50;9.18;;;22.50;24.50;;;;;;5031968;28;20075;-67
2022/03/14 11:11:21;;;;;;;11.98;10.57;;;22.80;24.00;;;;;;5030258;28;20368;-62
2022/03/14 11:13:49;;;;;;;11.98;9.80;;;22.60;24.70;;;;;;5030656;28;20049;-63
2022/03/14 11:16:23;;;;;;;10.85;8.38;;;22.90;26.40;;;;;;5028771;28;20033;-63
2022/03/14 11:18:50;;;;;;;11.90;9.55;;;23.40;24.80;;;;;;5027231;28;20041;-67
2022/03/14 11:21:19;;;;;;;11.43;9.30;;;23.80;24.10;;;;;;5027391;28;20105;-65
2022/03/14 11:23:46;;;;;;;10.75;8.93;;;24.10;23.70;;;;;;5028157;28;20026;-65
2022/03/14 11:26:13;;;;;;;25.25;16.85;;;23.90;25.40;;;;;;5028153;28;20057;-64
2022/03/14 11:28:41;;;;;;;22.10;17.55;;;23.10;22.50;;;;;;5028584;28;20025;-64
2022/03/14 11:31:07;;;;;;;20.73;15.15;;;22.40;23.80;;;;;;5029461;28;20051;-62
2022/03/14 11:33:37;;;;;;;17.67;15.77;;;22.50;24.10;;;;;;5006579;28;20022;-66
2022/03/14 11:36:05;;;;;;;17.42;13.18;;;22.20;25.40;;;;;;5010328;28;20495;-64
2022/03/14 11:38:32;;;;;;;18.13;12.32;;;22.50;25.00;;;;;;5012305;28;20701;-63
2022/03/14 11:40:59;;;;;;;16.13;13.05;;;22.80;23.10;;;;;;5012389;28;20033;-63
2022/03/14 11:43:25;;;;;;;13.70;11.55;;;22.50;24.40;;;;;;5013125;28;20029;-64
2022/03/14 11:45:52;;;;;;;11.90;9.60;;;22.60;23.60;;;;;;5012977;28;20034;-65
2022/03/14 11:48:19;;;;;;;12.20;8.77;;;22.90;24.00;;;;;;5010988;28;20030;-64
2022/03/14 11:50:48;;;;;;;10.95;8.70;;;22.80;23.00;;;;;;5013614;28;20028;-67
2022/03/14 11:53:28;;;;;;;10.07;8.90;;;22.70;24.50;;;;;;5012853;28;20021;-65
2022/03/14 11:56:01;;;;;;;9.45;7.95;;;22.50;23.60;;;;;;5011808;28;20029;-65
2022/03/14 11:58:41;;;;;;;8.38;7.32;;;22.70;25.70;;;;;;5011553;28;20026;-67
2022/03/14 12:01:18;;;;;;;11.98;9.45;;;23.00;25.10;;;;;;5012011;28;20140;-69
2022/03/14 12:03:52;;;;;;;10.60;8.02;;;23.20;23.60;;;;;;5011951;28;20108;-68
2022/03/14 12:06:46;;;;;;;9.02;8.10;;;22.80;23.00;;;;;;5011345;28;20117;-68
2022/03/14 12:09:24;;;;;;;7.80;6.55;;;22.50;23.80;;;;;;5011396;28;20021;-65
2022/03/14 12:11:54;;;;;;;8.18;6.40;;;22.90;24.70;;;;;;5011413;28;20480;-64
2022/03/14 12:14:42;;;;;;;7.72;6.55;;;23.40;24.50;;;;;;5011013;28;20064;-67
2022/03/14 12:17:14;;;;;;;7.28;6.15;;;23.90;23.70;;;;;;5009470;28;20084;-63
2022/03/14 12:19:44;;;;;;;5.60;5.10;;;24.00;23.00;;;;;;5010871;28;20026;-67
2022/03/14 12:22:35;;;;;;;6.38;5.72;;;24.20;24.50;;;;;;5012275;28;20025;-64
2022/03/14 12:25:03;;;;;;;8.00;6.40;;;24.30;23.50;;;;;;5011655;28;20447;-67
2022/03/14 12:27:35;;;;;;;7.88;6.97;;;24.20;22.50;;;;;;5012260;28;20029;-64
2022/03/14 12:30:25;;;;;;;8.93;8.03;;;23.90;23.20;;;;;;5012620;28;20046;-66
2022/03/14 12:32:54;;;;;;;9.20;8.30;;;23.60;23.90;;;;;;5012537;28;20038;-67